Time;durP1;ratioP1;P1;durP2;ratioP2;P2;SDS_P1;SDS_P2;PMS_P1;PMS_P2;Temp;Humidity;BMP_temperature;BMP_pressure;BME280_temperature;BME280_humidity;BME280_pressure;Samples;Min_cycle;Max_cycle;Signal;HPM_P1;HPM_P2
2021/12/24 00:00:53;;;;;;;24.42;17.40;;;;;;;2.64;47.72;94783.78;5068212;28;20610;-72
2021/12/24 00:03:19;;;;;;;27.48;17.60;;;;;;;2.78;47.27;94776.50;5069520;28;20198;-72
2021/12/24 00:05:45;;;;;;;21.63;16.70;;;;;;;2.66;47.00;94784.44;5070550;28;20170;-73
2021/12/24 00:08:10;;;;;;;21.40;16.40;;;;;;;3.12;46.16;94772.38;5070633;28;20198;-72
2021/12/24 00:10:37;;;;;;;19.57;14.50;;;;;;;2.89;45.93;94756.47;5069445;28;20171;-73
2021/12/24 00:13:08;;;;;;;22.42;15.82;;;;;;;2.46;47.50;94760.44;5070063;28;20171;-72
2021/12/24 00:18:16;;;;;;;21.90;15.20;;;;;;;2.71;47.19;94765.94;5069900;28;20186;-72
2021/12/24 00:35:06;;;;;;;26.65;16.50;;;;;;;2.16;49.11;94751.16;5070207;28;20245;-72
2021/12/24 00:37:12;;;;;;;26.75;17.83;;;;;;;2.35;48.96;94773.53;5069523;28;20173;-72
2021/12/24 00:39:46;;;;;;;23.43;14.80;;;;;;;2.56;48.64;94775.91;5067625;28;20604;-72
2021/12/24 00:42:12;;;;;;;20.42;14.80;;;;;;;2.38;48.97;94764.72;5069499;28;20185;-72
2021/12/24 00:44:38;;;;;;;15.47;10.77;;;;;;;2.45;48.91;94761.41;5067286;28;20198;-72
2021/12/24 00:47:04;;;;;;;24.93;18.60;;;;;;;2.02;49.74;94755.00;5070081;28;20194;-72
2021/12/24 00:49:30;;;;;;;24.77;15.63;;;;;;;2.44;48.99;94752.03;5069548;28;20175;-72
2021/12/24 00:52:07;;;;;;;26.60;19.80;;;;;;;2.04;49.72;94758.25;5068854;28;20444;-72
2021/12/24 00:57:20;;;;;;;28.17;18.48;;;;;;;2.72;47.79;94736.56;5069296;28;20169;-72
2021/12/24 00:59:46;;;;;;;28.67;18.40;;;;;;;2.83;47.44;94725.22;5067813;28;20178;-73
2021/12/24 01:02:11;;;;;;;28.00;18.40;;;;;;;2.63;47.50;94724.50;5067371;28;20166;-73
2021/12/24 01:04:37;;;;;;;26.07;18.93;;;;;;;2.64;48.11;94726.16;5068290;28;20210;-73
2021/12/24 01:07:03;;;;;;;24.67;18.27;;;;;;;3.01;47.22;94722.66;5066949;28;20171;-72
2021/12/24 01:09:28;;;;;;;24.73;17.90;;;;;;;2.83;47.43;94717.47;5068667;28;20174;-72
2021/12/24 01:11:54;;;;;;;28.83;18.40;;;;;;;2.79;47.30;94724.69;5069410;28;20185;-72
2021/12/24 01:14:21;;;;;;;24.20;18.40;;;;;;;2.89;47.40;94719.47;5069084;28;20177;-73
2021/12/24 01:17:06;;;;;;;26.10;17.70;;;;;;;3.19;46.97;94726.09;5079761;28;20241;-73
2021/12/24 01:19:32;;;;;;;29.90;19.38;;;;;;;3.50;45.69;94723.13;5086824;28;20169;-73
2021/12/24 01:24:31;;;;;;;21.00;15.47;;;;;;;3.43;45.01;94709.16;5088228;28;20194;-72
2021/12/24 01:27:19;;;;;;;23.90;15.80;;;;;;;3.21;44.74;94713.81;5088233;28;20268;-73
2021/12/24 01:29:59;;;;;;;18.85;14.80;;;;;;;3.18;44.68;94706.34;5087675;28;20161;-72
2021/12/24 01:38:11;;;;;;;20.85;15.50;;;;;;;3.03;46.02;94692.31;5086386;28;20238;-73
2021/12/24 01:42:40;;;;;;;18.38;14.82;;;;;;;2.98;45.84;94702.25;5086511;28;20719;-73
2021/12/24 01:43:28;;;;;;;18.95;14.13;;;;;;;3.41;45.05;94692.97;5085971;28;20710;-73
2021/12/24 01:45:56;;;;;;;23.90;16.63;;;;;;;3.06;45.31;94695.41;5086079;28;20260;-73
2021/12/24 01:48:23;;;;;;;19.40;15.90;;;;;;;3.11;45.01;94705.31;5086029;28;20412;-74
2021/12/24 01:50:50;;;;;;;21.97;16.80;;;;;;;3.26;44.97;94697.84;5086001;28;20412;-73
2021/12/24 01:53:18;;;;;;;26.73;17.30;;;;;;;3.08;45.29;94708.19;5084696;28;20492;-72
2021/12/24 01:55:45;;;;;;;23.33;18.10;;;;;;;3.41;44.63;94690.38;5085066;28;20411;-73
2021/12/24 01:58:11;;;;;;;20.73;16.30;;;;;;;3.03;45.99;94697.47;5086088;28;20464;-72
2021/12/24 02:00:41;;;;;;;23.27;17.17;;;;;;;3.15;45.34;94693.72;5085980;28;20400;-72
2021/12/24 02:03:08;;;;;;;19.37;15.53;;;;;;;3.00;45.50;94685.66;5085761;28;20228;-73
2021/12/24 02:05:34;;;;;;;19.87;14.00;;;;;;;3.16;44.91;94674.66;5085616;28;20443;-72
2021/12/24 02:08:00;;;;;;;21.20;15.27;;;;;;;3.05;45.62;94667.13;5084584;28;20420;-73
2021/12/24 02:10:26;;;;;;;20.27;14.93;;;;;;;2.87;46.12;94670.50;5085876;28;20211;-72
2021/12/24 02:12:52;;;;;;;19.10;15.10;;;;;;;3.45;44.30;94660.66;5085950;28;20265;-72
2021/12/24 02:15:28;;;;;;;17.90;14.63;;;;;;;2.98;45.41;94651.41;5085736;28;20165;-72
2021/12/24 02:28:39;;;;;;;29.77;19.80;;;;;;;3.27;45.72;94635.66;5085939;28;20383;-73
2021/12/24 02:31:14;;;;;;;46.87;23.20;;;;;;;2.74;48.03;94633.88;5084169;28;20420;-73
2021/12/24 02:33:40;;;;;;;44.00;25.55;;;;;;;2.72;48.14;94633.22;5085865;28;20487;-73
2021/12/24 02:36:06;;;;;;;40.60;25.40;;;;;;;2.93;47.81;94613.06;5085697;28;20172;-73
2021/12/24 02:38:32;;;;;;;35.97;22.50;;;;;;;2.36;48.68;94615.09;5085799;28;20177;-72
2021/12/24 02:40:58;;;;;;;32.13;23.20;;;;;;;2.53;48.56;94609.13;5085244;28;20182;-73
2021/12/24 02:43:25;;;;;;;40.88;23.05;;;;;;;2.41;48.43;94610.31;5084177;28;20194;-73
2021/12/24 02:45:54;;;;;;;37.45;24.73;;;;;;;2.45;48.17;94611.63;5085248;28;20248;-73
2021/12/24 02:56:36;;;;;;;27.98;19.75;;;;;;;2.12;48.91;94588.03;5084869;28;20177;-73
2021/12/24 02:59:12;;;;;;;28.88;20.33;;;;;;;2.35;48.66;94597.97;5085233;28;20221;-73
2021/12/24 03:01:41;;;;;;;26.30;18.97;;;;;;;1.94;48.86;94582.03;5083694;28;20201;-72
2021/12/24 03:04:07;;;;;;;21.70;18.05;;;;;;;1.75;49.64;94575.97;5083509;28;20456;-73
2021/12/24 03:06:35;;;;;;;26.52;18.92;;;;;;;1.95;49.11;94592.22;5085285;28;20204;-74
2021/12/24 03:09:05;;;;;;;24.55;16.15;;;;;;;2.10;49.42;94579.63;5087835;28;20178;-72
2021/12/24 03:11:31;;;;;;;32.03;17.47;;;;;;;2.61;48.00;94574.81;5089041;28;20169;-73
2021/12/24 03:13:57;;;;;;;32.60;18.77;;;;;;;2.05;49.41;94592.16;5089097;28;20415;-73
2021/12/24 03:16:22;;;;;;;21.93;13.90;;;;;;;1.84;50.00;94579.50;5088989;28;20197;-73
2021/12/24 03:18:49;;;;;;;23.03;17.60;;;;;;;1.52;51.01;94585.84;5087659;28;20252;-73
2021/12/24 03:21:20;;;;;;;20.45;11.05;;;;;;;1.72;50.92;94570.28;5088855;28;20531;-72
2021/12/24 03:24:34;;;;;;;26.43;18.17;;;;;;;1.80;50.81;94577.31;5088791;28;20190;-73
2021/12/24 03:26:37;;;;;;;25.50;16.73;;;;;;;1.43;51.72;94585.88;5078031;28;20925;-74
2021/12/24 03:29:05;;;;;;;23.42;17.00;;;;;;;1.95;50.29;94576.72;5068611;28;20159;-73
2021/12/24 03:31:31;;;;;;;19.38;12.10;;;;;;;1.58;51.27;94569.00;5067253;28;20242;-73
2021/12/24 03:33:56;;;;;;;24.23;16.50;;;;;;;1.83;51.33;94582.22;5068943;28;20182;-73
2021/12/24 03:36:24;;;;;;;22.00;15.70;;;;;;;1.90;50.41;94580.69;5068452;28;20892;-73
2021/12/24 03:38:50;;;;;;;29.17;18.00;;;;;;;1.77;51.27;94583.59;5068584;28;20174;-73
2021/12/24 03:41:16;;;;;;;20.25;15.70;;;;;;;1.29;52.71;94564.75;5068385;28;20646;-73
2021/12/24 03:43:42;;;;;;;36.10;18.97;;;;;;;1.50;52.00;94582.59;5066983;28;20210;-72
2021/12/24 03:46:12;;;;;;;27.57;19.33;;;;;;;1.55;52.68;94561.53;5066789;28;20181;-72
2021/12/24 03:56:26;;;;;;;30.48;20.63;;;;;;;1.75;52.21;94557.94;5068208;28;20220;-73
2021/12/24 03:58:51;;;;;;;26.10;18.63;;;;;;;2.27;50.85;94538.50;5067936;28;20178;-73
2021/12/24 04:01:17;;;;;;;31.77;21.20;;;;;;;1.93;51.88;94541.69;5068337;28;20171;-73
2021/12/24 04:03:43;;;;;;;28.43;19.27;;;;;;;2.03;51.22;94541.63;5067876;28;20204;-72
2021/12/24 04:06:09;;;;;;;24.77;18.70;;;;;;;2.33;50.81;94537.91;5068134;28;20232;-73
2021/12/24 04:08:34;;;;;;;27.43;19.03;;;;;;;1.87;51.33;94550.81;5068034;28;20261;-73
2021/12/24 04:11:00;;;;;;;26.20;19.90;;;;;;;1.78;51.56;94553.44;5067925;28;20982;-73
2021/12/24 04:13:25;;;;;;;24.33;19.40;;;;;;;2.10;51.31;94547.84;5066338;28;20201;-73
2021/12/24 04:15:51;;;;;;;32.77;18.60;;;;;;;2.48;49.41;94551.94;5067854;28;20179;-73
2021/12/24 04:18:43;;;;;;;24.00;17.67;;;;;;;2.28;50.04;94551.28;5065821;28;20175;-73
2021/12/24 04:26:36;;;;;;;24.30;17.85;;;;;;;2.12;50.86;94553.66;5067978;28;20188;-74
2021/12/24 04:29:01;;;;;;;26.60;18.37;;;;;;;2.15;50.65;94556.78;5066125;28;20205;-73
2021/12/24 04:31:40;;;;;;;24.50;17.90;;;;;;;2.07;50.29;94543.00;5065869;28;20417;-74
2021/12/24 04:34:06;;;;;;;21.05;17.60;;;;;;;2.07;51.62;94538.63;5067551;28;20233;-73
2021/12/24 05:01:16;;;;;;;32.45;20.55;;;;;;;1.90;51.78;94557.47;5067253;28;20308;-72
2021/12/24 05:03:44;;;;;;;23.17;14.30;;;;;;;2.11;51.52;94560.59;5067023;28;20190;-73
2021/12/24 05:08:56;;;;;;;29.48;18.90;;;;;;;2.33;51.24;94571.47;5066807;28;20154;-72
2021/12/24 05:11:23;;;;;;;23.33;14.43;;;;;;;1.74;52.47;94551.13;5065405;28;20170;-72
2021/12/24 05:13:50;;;;;;;31.63;17.95;;;;;;;1.33;53.58;94550.63;5066711;28;20648;-72
2021/12/24 05:16:38;;;;;;;30.58;18.88;;;;;;;1.45;54.01;94577.03;5066664;28;20166;-73
2021/12/24 05:22:05;;;;;;;25.27;19.02;;;;;;;1.21;54.75;94562.03;5064209;28;20312;-72
2021/12/24 05:24:30;;;;;;;26.97;17.67;;;;;;;1.49;54.48;94564.69;5066031;28;20218;-72
2021/12/24 05:27:01;;;;;;;19.53;13.00;;;;;;;0.93;55.07;94551.66;5066695;28;20171;-72
2021/12/24 05:29:26;;;;;;;27.95;19.33;;;;;;;1.09;54.86;94571.69;5065178;28;20201;-72
2021/12/24 05:31:52;;;;;;;15.00;13.50;;;;;;;1.19;54.22;94540.75;5064958;28;20193;-72
2021/12/24 05:34:18;;;;;;;28.37;19.73;;;;;;;1.34;54.07;94552.22;5066248;28;20163;-72
2021/12/24 05:36:45;;;;;;;26.75;19.55;;;;;;;1.11;55.07;94574.13;5065921;28;20174;-72
2021/12/24 05:39:11;;;;;;;28.35;18.80;;;;;;;1.44;53.90;94546.25;5066200;28;20171;-72
2021/12/24 05:41:39;;;;;;;27.98;20.83;;;;;;;1.65;53.37;94564.06;5066100;28;20175;-72
2021/12/24 05:44:05;;;;;;;29.27;20.60;;;;;;;1.72;53.18;94545.31;5066110;28;20194;-72
2021/12/24 05:46:31;;;;;;;24.90;18.93;;;;;;;1.61;52.11;94545.50;5066016;28;20177;-73
2021/12/24 05:48:56;;;;;;;11.43;8.17;;;;;;;1.58;52.44;94545.00;5064754;28;20524;-72
2021/12/24 05:51:22;;;;;;;32.70;21.17;;;;;;;1.43;52.68;94542.84;5065717;28;20167;-72
2021/12/24 05:53:47;;;;;;;33.47;19.97;;;;;;;1.88;52.08;94533.59;5065963;28;20166;-72
2021/12/24 05:56:13;;;;;;;15.93;10.30;;;;;;;1.04;54.00;94513.78;5065938;28;20170;-72
2021/12/24 05:58:39;;;;;;;29.43;19.50;;;;;;;1.40;53.42;94519.91;5065929;28;20171;-73
2021/12/24 06:01:05;;;;;;;22.97;16.83;;;;;;;1.41;52.99;94510.44;5065738;28;20429;-73
2021/12/24 06:03:31;;;;;;;32.97;19.70;;;;;;;1.71;52.37;94517.91;5064412;28;20186;-73
2021/12/24 06:05:56;;;;;;;16.52;9.70;;;;;;;1.32;53.09;94512.91;5065642;28;20175;-72
2021/12/24 06:08:22;;;;;;;29.23;19.73;;;;;;;1.61;51.89;94514.53;5065527;28;20185;-72
2021/12/24 06:10:47;;;;;;;34.17;18.60;;;;;;;1.78;51.61;94515.56;5065718;28;20173;-72
2021/12/24 06:13:13;;;;;;;35.40;20.83;;;;;;;1.75;51.79;94515.84;5065859;28;20167;-72
2021/12/24 06:15:44;;;;;;;21.83;15.63;;;;;;;1.60;51.82;94530.97;5065626;28;20224;-73
2021/12/24 06:18:20;;;;;;;32.50;20.77;;;;;;;1.75;52.04;94516.66;5065855;28;20154;-73
2021/12/24 06:20:46;;;;;;;30.42;20.60;;;;;;;2.16;50.51;94529.19;5065745;28;20162;-73
2021/12/24 06:23:12;;;;;;;26.27;19.60;;;;;;;2.21;50.70;94521.81;5065800;28;20268;-73
2021/12/24 06:25:38;;;;;;;28.97;18.70;;;;;;;2.44;49.72;94532.53;5065407;28;20162;-73
2021/12/24 06:28:04;;;;;;;28.90;19.93;;;;;;;2.30;50.62;94549.34;5064345;28;20198;-73
2021/12/24 06:30:31;;;;;;;21.95;17.55;;;;;;;2.19;50.49;94521.16;5065509;28;20416;-73
2021/12/24 06:32:57;;;;;;;29.20;19.27;;;;;;;1.72;52.46;94565.13;5064087;28;20171;-73
2021/12/24 06:35:24;;;;;;;27.02;19.90;;;;;;;2.18;51.33;94568.56;5064130;28;20182;-73
2021/12/24 06:37:50;;;;;;;24.88;18.92;;;;;;;2.24;51.19;94580.09;5065409;28;20220;-73
2021/12/24 06:40:16;;;;;;;36.10;20.73;;;;;;;2.86;49.48;94582.78;5063451;28;20238;-73
2021/12/24 06:42:42;;;;;;;29.97;18.60;;;;;;;2.87;49.06;94577.47;5068906;28;20212;-72
2021/12/24 06:45:08;;;;;;;14.45;9.80;;;;;;;2.55;49.70;94572.84;5071841;28;20417;-73
2021/12/24 06:47:34;;;;;;;32.83;20.37;;;;;;;2.44;50.40;94585.97;5071997;28;20193;-73
2021/12/24 06:49:59;;;;;;;22.53;15.37;;;;;;;1.81;52.30;94564.28;5070265;28;20178;-73
2021/12/24 06:52:25;;;;;;;30.80;20.77;;;;;;;2.07;51.93;94561.84;5070584;28;20190;-73
2021/12/24 06:54:50;;;;;;;19.57;11.80;;;;;;;2.58;50.90;94566.56;5071702;28;20170;-73
2021/12/24 06:57:18;;;;;;;30.23;19.77;;;;;;;2.07;51.94;94543.78;5071821;28;20167;-72
2021/12/24 06:59:44;;;;;;;15.80;12.10;;;;;;;2.72;50.40;94564.28;5071952;28;20181;-73
2021/12/24 07:02:10;;;;;;;22.77;16.50;;;;;;;1.90;51.59;94529.09;5071853;28;20591;-72
2021/12/24 07:04:35;;;;;;;28.77;18.60;;;;;;;2.47;50.81;94545.16;5071573;28;20214;-73
2021/12/24 07:07:01;;;;;;;28.13;19.13;;;;;;;3.06;50.04;94550.66;5071934;28;20257;-73
2021/12/24 07:09:26;;;;;;;21.37;13.83;;;;;;;2.98;49.66;94532.50;5071630;28;20170;-73
2021/12/24 07:11:52;;;;;;;28.83;19.30;;;;;;;3.18;49.71;94547.84;5071924;28;20175;-73
2021/12/24 07:14:18;;;;;;;36.13;20.60;;;;;;;2.82;50.09;94540.94;5071682;28;20170;-73
2021/12/24 07:16:44;;;;;;;27.80;19.27;;;;;;;3.00;49.52;94571.09;5071781;28;20588;-72
2021/12/24 07:19:09;;;;;;;16.53;10.80;;;;;;;2.22;51.53;94530.38;5071580;28;20170;-72
2021/12/24 07:21:35;;;;;;;32.60;20.63;;;;;;;2.78;50.04;94531.88;5071542;28;20226;-73
2021/12/24 07:24:06;;;;;;;28.67;19.87;;;;;;;3.07;50.06;94548.88;5071748;28;20239;-72
2021/12/24 07:26:31;;;;;;;25.43;17.70;;;;;;;3.17;49.50;94553.94;5070302;28;20242;-72
2021/12/24 07:28:58;;;;;;;21.23;12.48;;;;;;;3.19;48.64;94537.34;5071800;28;20530;-72
2021/12/24 07:31:24;;;;;;;25.00;19.20;;;;;;;3.32;49.04;94548.09;5069965;28;20181;-72
2021/12/24 07:33:49;;;;;;;29.80;15.07;;;;;;;3.78;48.26;94536.69;5071332;28;20174;-72
2021/12/24 07:36:15;;;;;;;27.20;18.37;;;;;;;3.19;48.99;94537.34;5071444;28;20179;-73
2021/12/24 07:38:40;;;;;;;33.70;19.20;;;;;;;3.76;48.54;94543.81;5071488;28;20171;-72
2021/12/24 07:41:06;;;;;;;20.73;15.17;;;;;;;3.72;47.46;94546.69;5071381;28;20178;-72
2021/12/24 07:43:32;;;;;;;24.10;16.30;;;;;;;3.51;47.93;94535.94;5069667;28;20229;-72
2021/12/24 07:45:57;;;;;;;23.83;17.50;;;;;;;3.85;47.67;94548.03;5069931;28;20189;-72
2021/12/24 07:48:28;;;;;;;23.40;14.90;;;;;;;4.16;46.96;94552.69;5071382;28;20420;-72
2021/12/24 07:53:22;;;;;;;25.83;17.10;;;;;;;3.55;47.93;94529.47;5069283;28;20167;-72
2021/12/24 07:55:48;;;;;;;25.60;16.30;;;;;;;3.86;47.38;94547.06;5068286;28;20500;-73
2021/12/24 07:58:14;;;;;;;26.50;17.17;;;;;;;4.57;45.92;94535.47;5068779;28;20445;-72
2021/12/24 08:00:41;;;;;;;25.87;16.30;;;;;;;4.32;46.26;94550.13;5067954;28;20167;-72
2021/12/24 08:03:07;;;;;;;29.37;16.67;;;;;;;4.87;44.78;94530.63;5066452;28;20491;-72
2021/12/24 08:05:35;;;;;;;23.13;15.30;;;;;;;4.18;46.09;94524.88;5066401;28;20424;-73
2021/12/24 08:08:01;;;;;;;18.90;15.67;;;;;;;3.77;47.50;94568.72;5066671;28;20420;-72
2021/12/24 08:10:27;;;;;;;16.13;12.97;;;;;;;4.09;45.92;94529.19;5067824;28;20424;-72
2021/12/24 08:12:53;;;;;;;26.13;16.13;;;;;;;3.89;46.74;94523.47;5068344;28;20413;-72
2021/12/24 08:15:20;;;;;;;23.97;17.70;;;;;;;4.30;45.88;94546.91;5067872;28;20229;-73
2021/12/24 08:17:46;;;;;;;31.53;16.13;;;;;;;4.26;46.67;94555.97;5066266;28;20456;-72
2021/12/24 08:20:14;;;;;;;23.50;16.63;;;;;;;4.30;46.40;94539.13;5067557;28;20795;-71
2021/12/24 08:22:40;;;;;;;23.13;16.67;;;;;;;4.68;45.45;94537.72;5067254;28;20468;-72
2021/12/24 08:25:08;;;;;;;19.90;13.47;;;;;;;3.93;45.94;94514.44;5067524;28;20556;-72
2021/12/24 08:27:34;;;;;;;23.50;15.27;;;;;;;4.17;46.18;94529.22;5067655;28;20597;-72
2021/12/24 08:30:01;;;;;;;16.60;11.70;;;;;;;4.01;46.22;94511.88;5068245;28;20421;-73
2021/12/24 08:32:26;;;;;;;14.40;10.47;;;;;;;3.46;47.51;94491.59;5066277;28;20798;-71
2021/12/24 08:34:53;;;;;;;18.63;14.00;;;;;;;3.92;46.80;94479.16;5067344;28;20413;-72
2021/12/24 08:37:19;;;;;;;18.20;12.60;;;;;;;4.39;45.16;94499.31;5066342;28;20167;-73
2021/12/24 08:39:44;;;;;;;15.93;11.40;;;;;;;4.54;45.00;94488.34;5067193;28;20496;-72
2021/12/24 08:42:10;;;;;;;17.80;12.63;;;;;;;4.40;45.16;94476.81;5067595;28;20435;-72
2021/12/24 08:44:37;;;;;;;18.53;13.80;;;;;;;4.48;45.27;94475.06;5066229;28;20698;-73
2021/12/24 08:47:04;;;;;;;20.63;14.00;;;;;;;4.85;44.68;94483.31;5067301;28;20911;-72
2021/12/24 08:49:31;;;;;;;17.63;13.30;;;;;;;4.15;46.03;94475.97;5066827;28;20472;-73
2021/12/24 08:51:57;;;;;;;20.57;11.90;;;;;;;4.42;45.49;94483.47;5066983;28;20413;-73
2021/12/24 08:54:24;;;;;;;21.30;15.67;;;;;;;4.57;45.98;94508.72;5066623;28;20409;-72
2021/12/24 08:56:53;;;;;;;18.23;13.40;;;;;;;4.63;45.84;94498.53;5065434;28;20420;-72
2021/12/24 08:59:19;;;;;;;14.10;9.97;;;;;;;3.85;47.11;94499.69;5066766;28;20425;-72
2021/12/24 09:01:45;;;;;;;19.20;14.60;;;;;;;4.69;45.67;94507.47;5066913;28;20479;-73
2021/12/24 09:04:12;;;;;;;21.40;14.33;;;;;;;5.09;45.09;94498.84;5066781;28;20461;-73
2021/12/24 09:06:38;;;;;;;18.10;15.10;;;;;;;5.03;44.80;94491.72;5066305;28;20171;-73
2021/12/24 09:09:06;;;;;;;20.70;13.30;;;;;;;5.02;45.32;94486.69;5066867;28;20479;-73
2021/12/24 09:11:37;;;;;;;21.93;14.87;;;;;;;5.36;44.73;94491.66;5066893;28;20417;-74
2021/12/24 09:14:03;;;;;;;22.63;14.73;;;;;;;5.01;45.15;94474.72;5065351;28;20410;-74
2021/12/24 09:16:28;;;;;;;23.13;16.20;;;;;;;4.82;46.37;94471.50;5066417;28;20419;-73
2021/12/24 09:19:01;;;;;;;32.70;16.77;;;;;;;5.59;44.96;94467.59;5066244;28;20489;-73
2021/12/24 09:21:27;;;;;;;26.80;18.70;;;;;;;5.87;44.91;94480.94;5066321;28;20218;-73
2021/12/24 09:23:55;;;;;;;21.20;15.93;;;;;;;5.93;44.45;94475.06;5066392;28;20456;-73
2021/12/24 09:29:08;;;;;;;23.10;15.90;;;;;;;6.44;42.96;94464.25;5066547;28;20416;-74
2021/12/24 09:31:34;;;;;;;25.37;16.87;;;;;;;7.10;42.25;94456.72;5066230;28;20413;-74
2021/12/24 09:33:59;;;;;;;22.20;14.90;;;;;;;7.00;41.84;94461.38;5064909;28;20440;-73
2021/12/24 09:36:28;;;;;;;11.77;9.57;;;;;;;6.12;43.48;94460.09;5066144;28;20217;-73
2021/12/24 09:38:57;;;;;;;17.53;11.60;;;;;;;6.58;42.74;94440.13;5066102;28;20638;-74
2021/12/24 09:41:24;;;;;;;31.50;18.13;;;;;;;6.78;43.05;94437.84;5066059;28;20435;-72
2021/12/24 09:43:50;;;;;;;23.53;15.80;;;;;;;7.56;40.98;94433.13;5064447;28;20535;-73
2021/12/24 09:46:16;;;;;;;25.43;17.93;;;;;;;7.95;40.53;94436.44;5052496;28;20417;-73
2021/12/24 09:48:42;;;;;;;25.07;17.70;;;;;;;9.04;38.42;94428.41;5065003;28;20417;-74
2021/12/24 09:51:09;;;;;;;22.40;14.17;;;;;;;7.86;40.12;94414.06;5066130;28;20428;-74
2021/12/24 09:53:38;;;;;;;22.73;16.63;;;;;;;7.89;40.64;94419.72;5065394;28;20174;-72
2021/12/24 09:56:04;;;;;;;21.80;16.37;;;;;;;8.51;39.28;94418.38;5065930;28;20421;-72
2021/12/24 09:58:30;;;;;;;24.03;16.90;;;;;;;8.72;39.02;94425.38;5066494;28;20413;-72
2021/12/24 10:00:56;;;;;;;25.00;16.60;;;;;;;9.16;38.98;94424.31;5067045;28;20762;-73
2021/12/24 10:03:32;;;;;;;16.47;14.33;;;;;;;8.47;38.92;94400.69;5066183;28;20233;-73
2021/12/24 10:05:58;;;;;;;18.73;12.67;;;;;;;7.78;40.11;94394.16;5064999;28;20194;-73
2021/12/24 10:08:25;;;;;;;18.43;14.37;;;;;;;9.04;38.05;94396.31;5065607;28;20785;-72
2021/12/24 10:10:59;;;;;;;9.53;6.90;;;;;;;8.84;38.89;94398.75;5064241;28;20183;-73
2021/12/24 10:13:43;;;;;;;18.50;15.43;;;;;;;8.81;39.43;94393.94;5064253;28;20506;-72
2021/12/24 10:16:12;;;;;;;30.67;15.03;;;;;;;9.56;37.70;94385.34;5064834;28;20429;-73
2021/12/24 10:18:42;;;;;;;17.93;15.27;;;;;;;9.37;38.23;94391.25;5063977;28;20436;-73
2021/12/24 10:21:19;;;;;;;17.13;13.63;;;;;;;9.13;38.55;94380.31;5065246;28;20424;-73
2021/12/24 10:23:56;;;;;;;14.53;10.20;;;;;;;8.67;40.22;94382.56;5065263;28;20463;-72
2021/12/24 10:26:28;;;;;;;15.27;13.67;;;;;;;7.56;41.66;94362.84;5065234;28;20413;-73
2021/12/24 10:29:05;;;;;;;20.10;14.50;;;;;;;8.88;39.97;94361.69;5065108;28;20508;-73
2021/12/24 10:31:42;;;;;;;20.80;15.23;;;;;;;10.06;38.34;94364.22;5065371;28;20512;-73
2021/12/24 10:34:23;;;;;;;21.70;16.10;;;;;;;10.26;37.36;94348.56;5065710;28;20393;-74
2021/12/24 10:36:56;;;;;;;22.90;11.43;;;;;;;9.72;37.65;94352.84;5065759;28;20405;-73
2021/12/24 10:39:26;;;;;;;19.27;14.97;;;;;;;9.95;37.69;94344.66;5064065;28;20528;-73
2021/12/24 10:41:53;;;;;;;13.73;7.97;;;;;;;9.89;36.53;94339.44;5065151;28;20450;-73
2021/12/24 10:44:22;;;;;;;14.23;8.87;;;;;;;9.11;38.53;94334.53;5063631;28;20456;-73
2021/12/24 10:47:07;;;;;;;20.27;15.30;;;;;;;9.11;39.53;94340.53;5065563;28;20436;-73
2021/12/24 10:49:51;;;;;;;22.73;15.70;;;;;;;9.81;37.83;94335.19;5064114;28;20405;-73
2021/12/24 10:54:55;;;;;;;20.47;15.90;;;;;;;9.90;38.37;94323.56;5066027;28;20418;-73
2021/12/24 10:57:27;;;;;;;24.63;17.40;;;;;;;10.39;37.34;94307.75;5066289;28;20465;-73
2021/12/24 10:59:56;;;;;;;16.93;14.20;;;;;;;11.20;35.98;94306.63;5065063;28;20452;-72
2021/12/24 11:02:28;;;;;;;23.30;16.73;;;;;;;10.93;36.32;94314.56;5065215;28;20491;-73
2021/12/24 11:04:53;;;;;;;22.33;17.60;;;;;;;11.98;34.25;94298.63;5066093;28;20463;-73
2021/12/24 11:07:39;;;;;;;20.70;17.27;;;;;;;11.47;35.36;94286.38;5049657;28;20905;-73
2021/12/24 11:10:12;;;;;;;18.10;15.17;;;;;;;11.64;35.31;94287.50;5046045;28;20259;-73
2021/12/24 11:12:45;;;;;;;18.13;15.00;;;;;;;11.84;34.87;94276.91;5063703;28;20964;-73
2021/12/24 11:15:29;;;;;;;20.87;15.33;;;;;;;12.79;33.17;94275.19;5060389;28;20458;-72
2021/12/24 11:18:01;;;;;;;16.37;14.50;;;;;;;13.39;33.23;94278.03;5046562;28;20402;-73
2021/12/24 11:20:28;;;;;;;18.47;15.40;;;;;;;13.76;33.01;94279.78;5049017;28;20524;-73
2021/12/24 11:22:59;;;;;;;20.90;16.37;;;;;;;13.62;32.59;94263.34;5062868;28;20548;-72
2021/12/24 11:25:27;;;;;;;9.20;6.43;;;;;;;12.82;35.54;94256.38;5061045;28;20417;-73
2021/12/24 11:27:53;;;;;;;14.70;9.93;;;;;;;13.46;34.19;94247.16;5053837;28;20438;-73
2021/12/24 11:30:21;;;;;;;8.97;5.60;;;;;;;13.57;34.88;94239.56;5057023;28;20439;-73
2021/12/24 11:32:48;;;;;;;2.87;2.60;;;;;;;14.08;34.99;94243.50;5068590;28;20185;-73
2021/12/24 11:35:14;;;;;;;3.30;3.00;;;;;;;14.97;33.27;94238.19;5067466;28;20429;-73
2021/12/24 11:37:45;;;;;;;4.00;2.90;;;;;;;14.96;33.42;94239.19;5068343;28;20515;-73
2021/12/24 11:40:17;;;;;;;2.87;2.67;;;;;;;14.56;33.89;94234.63;5068638;28;20416;-73
2021/12/24 11:42:46;;;;;;;5.00;2.70;;;;;;;14.64;33.61;94230.88;5068703;28;20792;-73
2021/12/24 11:45:12;;;;;;;3.83;2.57;;;;;;;14.62;33.76;94238.19;5068464;28;20492;-73
2021/12/24 11:47:38;;;;;;;3.10;2.30;;;;;;;14.43;33.32;94237.47;5067090;28;20444;-74
2021/12/24 11:50:05;;;;;;;3.00;2.80;;;;;;;15.28;32.95;94249.34;5068172;28;20177;-73
2021/12/24 11:52:31;;;;;;;5.30;2.83;;;;;;;15.59;32.66;94242.03;5067729;28;20507;-73
2021/12/24 11:54:58;;;;;;;3.17;2.87;;;;;;;15.55;32.20;94240.91;5067920;28;20417;-74
2021/12/24 11:57:24;;;;;;;5.80;2.50;;;;;;;14.70;33.29;94234.41;5062828;28;20758;-73
2021/12/24 11:59:50;;;;;;;4.07;2.50;;;;;;;14.05;35.35;94233.41;5048690;28;20433;-73
2021/12/24 12:02:44;;;;;;;2.40;2.20;;;;;;;14.08;35.00;94240.88;5068330;28;20424;-73
2021/12/24 12:05:24;;;;;;;3.37;2.50;;;;;;;14.72;33.95;94232.34;5066357;28;20464;-74
2021/12/24 12:07:51;;;;;;;1.70;1.60;;;;;;;13.72;35.71;94234.72;5066672;28;20446;-74
2021/12/24 12:10:50;;;;;;;2.03;1.93;;;;;;;14.60;34.43;94235.78;5063059;28;20418;-73
2021/12/24 12:13:35;;;;;;;2.33;2.23;;;;;;;14.35;34.83;94229.94;5047553;28;20414;-73
2021/12/24 12:16:02;;;;;;;2.50;2.20;;;;;;;14.11;34.95;94221.97;5047488;28;20421;-74
2021/12/24 12:18:32;;;;;;;3.10;2.53;;;;;;;14.21;34.38;94232.78;5050750;28;20428;-74
2021/12/24 12:21:22;;;;;;;4.37;2.80;;;;;;;13.76;34.88;94227.97;5065768;28;20449;-75
2021/12/24 12:26:44;;;;;;;3.40;2.10;;;;;;;13.26;36.15;94220.31;5068995;28;20428;-74
2021/12/24 12:29:21;;;;;;;4.73;2.57;;;;;;;13.06;36.75;94213.47;5066235;28;20413;-74
2021/12/24 12:31:49;;;;;;;2.10;1.97;;;;;;;13.00;36.83;94203.84;5067302;28;20435;-74
2021/12/24 12:34:36;;;;;;;3.90;2.20;;;;;;;12.99;37.11;94204.06;5067423;28;20418;-74
2021/12/24 12:37:16;;;;;;;2.13;2.03;;;;;;;12.92;37.69;94198.09;5067306;28;20404;-74
2021/12/24 12:39:45;;;;;;;3.03;2.83;;;;;;;12.77;37.68;94206.34;5061390;28;20505;-74
2021/12/24 12:42:13;;;;;;;4.83;1.90;;;;;;;12.56;37.34;94205.75;5067464;28;20495;-74
2021/12/24 12:44:43;;;;;;;3.77;2.40;;;;;;;12.46;38.08;94200.19;5052988;28;20461;-74
2021/12/24 12:47:28;;;;;;;2.90;2.57;;;;;;;12.51;37.82;94187.22;5065256;28;20551;-74
2021/12/24 12:50:19;;;;;;;2.53;2.33;;;;;;;12.48;37.63;94192.88;5047897;28;20434;-74
2021/12/24 12:52:45;;;;;;;2.23;2.13;;;;;;;12.52;38.43;94198.50;5051027;28;20434;-73
2021/12/24 12:55:26;;;;;;;4.43;3.47;;;;;;;12.13;39.19;94185.56;5091672;28;20452;-74
2021/12/24 12:57:52;;;;;;;7.27;2.73;;;;;;;12.16;38.78;94189.56;5048536;28;20517;-74
2021/12/24 13:00:21;;;;;;;2.93;2.40;;;;;;;12.37;38.32;94186.56;5058016;28;20429;-73
2021/12/24 13:05:56;;;;;;;4.63;2.87;;;;;;;12.50;38.30;94177.72;5066527;28;20421;-74
2021/12/24 13:08:23;;;;;;;6.27;3.37;;;;;;;12.40;37.91;94180.06;5057453;28;20429;-73
2021/12/24 13:11:10;;;;;;;4.10;2.50;;;;;;;12.39;38.28;94184.50;5056966;28;20524;-73
2021/12/24 13:13:56;;;;;;;9.27;4.50;;;;;;;12.75;37.32;94171.59;5050318;28;20440;-73
2021/12/24 13:16:33;;;;;;;3.87;2.27;;;;;;;12.40;38.56;94180.06;5060418;28;20432;-73
2021/12/24 13:19:22;;;;;;;2.83;2.63;;;;;;;12.35;38.87;94167.59;5066442;28;20412;-73